Time;durP1;ratioP1;P1;durP2;ratioP2;P2;SDS_P1;SDS_P2;PMS_P1;PMS_P2;Temp;Humidity;BMP_temperature;BMP_pressure;BME280_temperature;BME280_humidity;BME280_pressure;Samples;Min_cycle;Max_cycle;Signal;HPM_P1;HPM_P2
2021/06/18 00:00:52;;;;;;;;;3.50;3.50;;;;;30.04;57.64;98867.53;5053057;28;8907;-73
2021/06/18 00:03:21;;;;;;;;;2.00;2.00;;;;;30.09;57.15;98866.34;5053054;28;8836;-73
2021/06/18 00:05:49;;;;;;;;;3.25;3.25;;;;;30.01;56.93;98852.00;5053022;28;8828;-73
2021/06/18 00:08:18;;;;;;;;;2.00;2.00;;;;;30.11;56.42;98864.00;5052885;28;8982;-73
2021/06/18 00:10:46;;;;;;;;;2.20;2.20;;;;;30.05;56.36;98846.53;5052795;28;8859;-73
2021/06/18 00:13:15;;;;;;;;;3.00;3.00;;;;;30.24;56.62;98872.53;5051717;28;8922;-73
2021/06/18 00:15:44;;;;;;;;;2.40;2.40;;;;;30.20;57.08;98864.38;5052852;28;8855;-73
2021/06/18 00:18:14;;;;;;;;;3.40;3.40;;;;;30.27;55.92;98866.28;5052863;28;8836;-72
2021/06/18 00:20:42;;;;;;;;;2.80;2.80;;;;;30.23;56.09;98868.25;5052693;28;8828;-73
2021/06/18 00:23:11;;;;;;;;;3.00;3.00;;;;;30.32;55.87;98877.53;5052950;28;8840;-73
2021/06/18 00:25:42;;;;;;;;;3.75;3.75;;;;;30.30;56.72;98871.72;5052671;28;8848;-73
2021/06/18 00:28:13;;;;;;;;;4.00;4.00;;;;;30.28;55.66;98870.56;5052616;28;8840;-73
2021/06/18 00:30:42;;;;;;;;;4.00;4.00;;;;;30.35;55.70;98876.75;5052448;28;8828;-73
2021/06/18 00:33:11;;;;;;;;;3.20;3.20;;;;;30.33;55.35;98867.44;5052463;28;8832;-73
2021/06/18 00:35:39;;;;;;;;;3.00;3.00;;;;;30.37;55.07;98882.56;5052488;28;8824;-73
2021/06/18 00:38:08;;;;;;;;;2.25;2.25;;;;;30.40;55.15;98878.28;5052674;28;8890;-73
2021/06/18 00:40:37;;;;;;;;;2.75;2.75;;;;;30.40;55.67;98878.28;5052312;28;9556;-73
2021/06/18 00:43:05;;;;;;;;;4.25;4.25;;;;;30.42;55.26;98889.56;5052627;28;9634;-73
2021/06/18 00:45:34;;;;;;;;;4.25;4.25;;;;;30.44;54.91;98887.22;5052304;28;9628;-73
2021/06/18 00:48:04;;;;;;;;;4.00;4.00;;;;;30.40;54.49;98883.72;5051821;28;8828;-72
2021/06/18 00:50:34;;;;;;;;;3.00;3.00;;;;;30.45;54.67;98900.44;5052398;28;8921;-73
2021/06/18 00:53:03;;;;;;;;;3.00;3.00;;;;;30.47;54.97;98903.53;5052230;28;8840;-73
2021/06/18 00:55:33;;;;;;;;;2.00;2.00;;;;;30.45;54.43;98903.16;5052253;28;8828;-75
2021/06/18 00:58:02;;;;;;;;;3.00;3.00;;;;;30.47;54.44;98906.25;5052507;28;8946;-75
2021/06/18 01:00:31;;;;;;;;;4.00;4.00;;;;;30.45;56.47;98915.97;5051769;28;8848;-74
2021/06/18 01:02:59;;;;;;;;;4.00;4.00;;;;;30.47;55.96;98917.13;5049980;28;8970;-75
2021/06/18 01:05:28;;;;;;;;;3.50;3.50;;;;;30.49;54.64;98920.25;5051572;28;8966;-75
2021/06/18 01:08:19;;;;;;;;;3.00;3.00;;;;;30.47;54.19;98914.41;5051295;28;9010;-75
2021/06/18 01:10:56;;;;;;;;;2.80;2.80;;;;;30.56;54.20;98927.59;5051818;28;8946;-76
2021/06/18 01:13:30;;;;;;;;;2.40;2.40;;;;;30.63;53.93;98929.53;5051450;28;8862;-76
2021/06/18 01:16:11;;;;;;;;;2.80;2.80;;;;;30.67;54.96;98928.34;5051898;28;8828;-74
2021/06/18 01:19:02;;;;;;;;;2.00;2.00;;;;;30.63;53.92;98921.38;5051782;28;8832;-76
2021/06/18 01:21:39;;;;;;;;;3.20;3.20;;;;;30.69;55.24;98906.94;5051900;28;8951;-73
2021/06/18 01:24:31;;;;;;;;;3.60;3.60;;;;;30.80;54.80;98920.50;5051613;28;8850;-74
2021/06/18 01:27:15;;;;;;;;;3.00;3.00;;;;;30.84;54.32;98926.72;5051661;28;8991;-74
2021/06/18 01:29:47;;;;;;;;;0.80;0.80;;;;;30.79;54.35;98911.56;5051908;28;8855;-73
2021/06/18 01:32:25;;;;;;;;;2.00;2.00;;;;;30.81;54.02;98913.88;5051608;28;8847;-73
2021/06/18 01:34:55;;;;;;;;;1.40;1.40;;;;;30.89;53.94;98914.63;5051237;28;8982;-74
2021/06/18 01:37:28;;;;;;;;;2.80;2.80;;;;;30.78;54.16;98906.50;5051606;28;8865;-76
2021/06/18 01:40:01;;;;;;;;;1.00;1.00;;;;;30.90;53.84;98927.84;5049723;28;8857;-73
2021/06/18 01:42:32;;;;;;;;;2.00;2.00;;;;;30.90;53.95;98922.41;5051405;28;8952;-75
2021/06/18 01:45:01;;;;;;;;;2.00;2.00;;;;;30.92;54.18;98925.50;5051817;28;8937;-76
2021/06/18 01:47:29;;;;;;;;;2.00;2.00;;;;;30.86;53.97;98905.31;5052727;28;8867;-75
2021/06/18 01:50:02;;;;;;;;;1.60;1.60;;;;;31.00;54.56;98923.50;5050909;28;8848;-74
2021/06/18 01:52:32;;;;;;;;;2.00;2.00;;;;;31.05;53.72;98926.59;5051609;28;8848;-76
2021/06/18 01:55:03;;;;;;;;;2.00;2.00;;;;;31.08;53.06;98920.34;5051573;28;8847;-74
2021/06/18 01:57:35;;;;;;;;;1.00;1.00;;;;;31.05;52.88;98912.97;5051582;28;8847;-75
2021/06/18 02:00:06;;;;;;;;;1.00;1.00;;;;;31.09;52.82;98911.00;5054352;28;9687;-73
2021/06/18 02:02:37;;;;;;;;;1.00;1.00;;;;;30.89;53.14;98879.22;5054457;28;8851;-74
2021/06/18 02:05:07;;;;;;;;;1.60;1.60;;;;;31.20;53.27;98923.78;5055092;28;8828;-74
2021/06/18 02:07:39;;;;;;;;;2.00;2.00;;;;;31.18;53.57;98916.03;5038756;28;8849;-76
2021/06/18 02:10:09;;;;;;;;;2.40;2.40;;;;;31.15;53.30;98900.47;5014512;28;8833;-76
2021/06/18 02:12:40;;;;;;;;;0.00;0.00;;;;;31.37;53.31;98928.31;5014925;28;9644;-76
2021/06/18 02:15:11;;;;;;;;;1.60;1.60;;;;;31.44;53.14;98922.81;5014535;28;8869;-76
2021/06/18 02:17:44;;;;;;;;;1.60;1.60;;;;;31.49;53.05;98919.66;5014696;28;8876;-73
2021/06/18 02:20:14;;;;;;;;;0.80;0.80;;;;;31.52;52.22;98910.66;5013698;28;8861;-75
2021/06/18 02:22:46;;;;;;;;;0.60;0.60;;;;;31.56;52.65;98913.34;5031358;28;9606;-77
2021/06/18 02:25:15;;;;;;;;;1.00;1.00;;;;;31.60;52.64;98914.88;5015945;28;8841;-75
2021/06/18 02:27:45;;;;;;;;;1.00;1.00;;;;;31.63;52.54;98903.16;5012924;28;8893;-72
2021/06/18 02:30:16;;;;;;;;;1.00;1.00;;;;;31.70;52.43;98916.75;5013847;28;8885;-75
2021/06/18 02:32:49;;;;;;;;;1.00;1.00;;;;;31.77;52.46;98919.44;5014185;28;8912;-75
2021/06/18 02:35:18;;;;;;;;;2.00;2.00;;;;;31.76;52.19;98904.25;5014454;28;8853;-73
2021/06/18 02:37:46;;;;;;;;;2.00;2.00;;;;;31.74;52.08;98895.69;5014525;28;8996;-73
2021/06/18 02:40:17;;;;;;;;;0.80;0.80;;;;;31.72;52.22;98895.31;5014584;28;8934;-76
2021/06/18 02:42:46;;;;;;;;;1.00;1.00;;;;;31.91;52.12;98915.78;5014362;28;8853;-78
2021/06/18 02:45:15;;;;;;;;;1.00;1.00;;;;;31.95;51.76;98921.19;5015891;28;8966;-76
2021/06/18 02:48:23;;;;;;;;;1.00;1.00;;;;;32.00;51.91;98921.53;5014231;28;9558;-80
2021/06/18 02:51:10;;;;;;;;;1.00;1.00;;;;;32.05;52.19;98928.50;5014098;28;8979;-77
2021/06/18 02:53:59;;;;;;;;;1.00;1.00;;;;;32.11;51.41;98921.41;5014211;28;8869;-76
2021/06/18 02:56:37;;;;;;;;;1.00;1.00;;;;;32.18;51.79;98918.63;5015160;28;8930;-72
2021/06/18 02:59:25;;;;;;;;;1.20;1.20;;;;;32.21;51.46;98912.34;5014055;28;8853;-73
2021/06/18 03:02:00;;;;;;;;;1.00;1.00;;;;;32.19;50.36;98903.78;5013323;28;8970;-73
2021/06/18 03:04:32;;;;;;;;;1.00;1.00;;;;;32.32;50.38;98909.50;5013986;28;8883;-73
2021/06/18 03:07:06;;;;;;;;;0.00;0.00;;;;;32.38;49.94;98908.66;5013954;28;8907;-78
2021/06/18 03:09:39;;;;;;;;;0.80;0.80;;;;;32.37;50.24;98900.88;5013548;28;8857;-76
2021/06/18 03:12:11;;;;;;;;;0.40;0.40;;;;;32.43;50.19;98910.94;5012989;28;9613;-72
2021/06/18 03:14:44;;;;;;;;;0.60;0.60;;;;;32.38;50.44;98899.69;5013289;28;8860;-73
2021/06/18 03:17:18;;;;;;;;;0.20;0.20;;;;;32.25;50.15;98876.84;5013406;28;8907;-73
2021/06/18 03:19:51;;;;;;;;;0.80;0.80;;;;;32.40;49.68;98900.84;5012739;28;8845;-72
2021/06/18 03:22:22;;;;;;;;;1.20;1.20;;;;;32.33;49.65;98900.16;5013232;28;8862;-74
2021/06/18 03:24:54;;;;;;;;;1.00;1.00;;;;;32.29;50.51;98881.09;5013611;28;8857;-73
2021/06/18 03:27:25;;;;;;;;;7.20;7.20;;;;;32.34;50.15;98888.81;5011913;28;8861;-76
2021/06/18 03:29:57;;;;;;;;;1.20;1.20;;;;;32.52;50.31;98902.22;5012073;28;8875;-75
2021/06/18 03:32:27;;;;;;;;;1.60;1.60;;;;;32.44;49.82;98870.75;5013406;28;8861;-74
2021/06/18 03:34:56;;;;;;;;;2.00;2.00;;;;;32.68;49.42;98902.38;5013367;28;8869;-73
2021/06/18 03:37:26;;;;;;;;;1.00;1.00;;;;;32.64;49.00;98871.63;5013370;28;8914;-73
2021/06/18 03:39:56;;;;;;;;;1.00;1.00;;;;;32.72;48.49;98883.22;5012650;28;8885;-72
2021/06/18 03:42:26;;;;;;;;;1.80;1.80;;;;;32.74;50.15;98875.38;5013204;28;8996;-72
2021/06/18 03:44:55;;;;;;;;;1.60;1.60;;;;;32.80;49.69;98881.19;5012948;28;8853;-74
2021/06/18 03:47:25;;;;;;;;;1.60;1.60;;;;;32.72;49.93;98864.09;5013183;28;8857;-74
2021/06/18 03:49:55;;;;;;;;;1.00;1.00;;;;;32.90;48.91;98881.03;5013340;28;8876;-75
2021/06/18 03:52:24;;;;;;;;;1.00;1.00;;;;;32.97;48.47;98877.44;5013123;28;8983;-72
2021/06/18 03:54:56;;;;;;;;;1.00;1.00;;;;;32.94;48.87;98857.16;5027572;28;8888;-75
2021/06/18 03:57:31;;;;;;;;;1.60;1.60;;;;;33.00;48.63;98855.50;5012940;28;8893;-75
2021/06/18 04:00:03;;;;;;;;;1.00;1.00;;;;;33.15;46.89;98871.69;5012898;28;8849;-74
2021/06/18 04:02:32;;;;;;;;;1.60;1.60;;;;;33.19;48.09;98859.50;5012890;28;8849;-72
2021/06/18 04:05:02;;;;;;;;;1.00;1.00;;;;;33.17;47.41;98848.22;5012807;28;8968;-72
2021/06/18 04:07:32;;;;;;;;;1.00;1.00;;;;;33.33;48.63;98856.56;5012633;28;8872;-71
2021/06/18 04:10:02;;;;;;;;;1.00;1.00;;;;;33.37;47.98;98860.00;5012372;28;8988;-78
2021/06/18 04:12:31;;;;;;;;;1.00;1.00;;;;;33.27;48.59;98833.59;5012565;28;9110;-76
2021/06/18 04:15:04;;;;;;;;;1.00;1.00;;;;;33.44;48.30;98836.47;5012982;28;8963;-77
2021/06/18 04:17:33;;;;;;;;;5.00;5.00;;;;;33.41;48.21;98829.09;5020994;28;8838;-77
2021/06/18 04:20:08;;;;;;;;;1.00;1.00;;;;;33.52;47.02;98833.19;5020589;28;8940;-77
2021/06/18 04:22:37;;;;;;;;;1.20;1.20;;;;;33.61;47.48;98832.63;5019150;28;8849;-78
2021/06/18 04:25:07;;;;;;;;;1.00;1.00;;;;;33.60;46.99;98825.63;5013586;28;8970;-78
2021/06/18 04:27:35;;;;;;;;;0.60;0.60;;;;;33.54;47.24;98800.72;5011604;28;8966;-78
2021/06/18 04:30:07;;;;;;;;;1.00;1.00;;;;;33.69;48.02;98817.63;5010835;28;8841;-72
2021/06/18 04:32:37;;;;;;;;;2.40;2.40;;;;;33.74;46.16;98821.84;5010835;28;8857;-72
2021/06/18 04:35:08;;;;;;;;;1.00;1.00;;;;;33.75;47.26;98807.75;5011560;28;8873;-73
2021/06/18 04:37:38;;;;;;;;;1.80;1.80;;;;;33.78;46.43;98809.63;5011554;28;8862;-71
2021/06/18 04:40:09;;;;;;;;;0.60;0.60;;;;;33.92;46.74;98822.28;5011424;28;8853;-72
2021/06/18 04:42:39;;;;;;;;;2.00;1.00;;;;;33.79;48.17;98783.81;5011325;28;8867;-72
2021/06/18 04:45:12;;;;;;;;;1.80;1.80;;;;;34.04;47.19;98816.16;5032015;28;8836;-72
2021/06/18 04:47:41;;;;;;;;;1.60;1.60;;;;;34.13;46.68;98810.88;5048908;28;8820;-71
2021/06/18 04:50:10;;;;;;;;;1.00;1.00;;;;;34.13;46.82;98796.41;5040960;28;8856;-70
2021/06/18 04:52:44;;;;;;;;;1.40;1.40;;;;;34.16;46.03;98790.88;5037137;28;8844;-71
2021/06/18 04:55:17;;;;;;;;;0.80;0.80;;;;;34.29;45.15;98793.72;5050545;28;8852;-71
2021/06/18 04:57:48;;;;;;;;;1.60;1.60;;;;;34.35;46.56;98792.06;5047236;28;10071;-74
2021/06/18 05:00:20;;;;;;;;;1.00;1.00;;;;;34.34;45.99;98785.03;5047527;28;8840;-75
2021/06/18 05:02:48;;;;;;;;;2.00;2.00;;;;;34.48;45.58;98789.41;5050417;28;8922;-74
2021/06/18 05:05:17;;;;;;;;;2.00;2.00;;;;;34.59;46.33;98787.22;5050724;28;8844;-73
2021/06/18 05:07:46;;;;;;;;;1.40;1.40;;;;;34.67;44.83;98783.09;5015363;28;8884;-73
2021/06/18 05:10:14;;;;;;;;;1.60;1.60;;;;;34.58;46.00;98750.06;5025766;28;8960;-74
2021/06/18 05:12:48;;;;;;;;;1.40;1.40;;;;;34.84;47.12;98778.44;5045529;28;8836;-74
2021/06/18 05:15:18;;;;;;;;;2.00;2.00;;;;;34.81;45.03;98765.59;5050304;28;8860;-72
2021/06/18 05:17:47;;;;;;;;;2.20;2.20;;;;;34.84;45.95;98772.94;5044737;28;8852;-74
2021/06/18 05:20:17;;;;;;;;;3.00;3.00;;;;;34.78;45.86;98755.44;5045682;28;8864;-74
2021/06/18 05:22:47;;;;;;;;;1.80;1.80;;;;;34.82;45.88;98758.91;5048901;28;8895;-72
2021/06/18 05:25:16;;;;;;;;;2.40;2.40;;;;;34.70;46.52;98740.38;5046334;28;8934;-71
2021/06/18 05:27:45;;;;;;;;;2.00;2.00;;;;;34.85;44.51;98758.81;5048166;28;8856;-72
2021/06/18 05:30:15;;;;;;;;;1.00;1.00;;;;;34.78;45.26;98728.81;5048067;28;9025;-72
2021/06/18 05:32:46;;;;;;;;;1.00;1.00;;;;;34.93;46.81;98738.25;5048167;28;8844;-73
2021/06/18 05:35:15;;;;;;;;;1.40;1.40;;;;;34.89;45.93;98714.88;5014673;28;8935;-75
2021/06/18 05:37:44;;;;;;;;;1.00;1.00;;;;;35.09;45.55;98733.94;5014921;28;8869;-73
2021/06/18 05:40:13;;;;;;;;;1.00;1.00;;;;;35.13;45.57;98727.13;5015505;28;8845;-72
2021/06/18 05:42:42;;;;;;;;;1.40;1.40;;;;;35.10;45.05;98711.56;5014215;28;8853;-71
2021/06/18 05:45:11;;;;;;;;;0.40;0.40;;;;;35.24;44.41;98715.88;5014745;28;9689;-73
2021/06/18 05:47:40;;;;;;;;;1.00;1.00;;;;;35.28;45.49;98714.56;5031803;28;8876;-72
2021/06/18 05:50:09;;;;;;;;;1.00;1.00;;;;;35.40;44.51;98715.84;5014173;28;8857;-72
2021/06/18 05:52:38;;;;;;;;;2.00;2.00;;;;;35.25;45.55;98688.00;5013341;28;9015;-71
2021/06/18 05:55:10;;;;;;;;;1.00;1.00;;;;;35.48;44.22;98703.47;5048302;28;8895;-72
2021/06/18 05:57:39;;;;;;;;;0.00;0.00;;;;;35.40;42.49;98688.41;5053631;28;8879;-75
2021/06/18 06:00:08;;;;;;;;;0.20;0.20;;;;;35.62;44.28;98694.84;5054143;28;8867;-73
2021/06/18 06:02:38;;;;;;;;;1.00;1.00;;;;;35.11;44.98;98608.13;5054058;28;8946;-75
2021/06/18 06:05:06;;;;;;;;;0.40;0.40;;;;;35.82;41.30;98680.94;5054083;28;9643;-75
2021/06/18 06:07:35;;;;;;;;;1.00;1.00;;;;;35.98;43.49;98679.31;5053573;28;8941;-72
2021/06/18 06:10:05;;;;;;;;;2.00;2.00;;;;;36.05;44.03;98679.84;5053729;28;8994;-72
2021/06/18 06:12:33;;;;;;;;;0.60;0.60;;;;;36.00;44.09;98654.94;5053887;28;8897;-76
2021/06/18 06:15:02;;;;;;;;;0.00;0.00;;;;;36.17;42.21;98662.59;5054841;28;8836;-74
2021/06/18 06:17:31;;;;;;;;;1.00;1.00;;;;;36.13;42.54;98650.19;5053848;28;8852;-76
2021/06/18 06:20:00;;;;;;;;;1.00;1.00;;;;;36.17;42.70;98662.59;5053963;28;8852;-72
2021/06/18 06:22:28;;;;;;;;;0.40;0.40;;;;;36.27;41.95;98660.75;5053955;28;8863;-72
2021/06/18 06:24:57;;;;;;;;;0.00;0.00;;;;;36.21;41.87;98635.03;5054060;28;8848;-73
2021/06/18 06:27:26;;;;;;;;;0.60;0.60;;;;;36.38;41.35;98641.19;5054370;28;8990;-73
2021/06/18 06:29:55;;;;;;;;;1.60;1.60;;;;;36.48;43.41;98645.53;5054322;28;8982;-75
2021/06/18 06:32:23;;;;;;;;;0.80;0.80;;;;;36.52;42.98;98646.94;5053776;28;8837;-72
2021/06/18 06:34:52;;;;;;;;;0.40;0.40;;;;;36.28;43.23;98596.38;5052339;28;8917;-75
2021/06/18 06:37:20;;;;;;;;;0.60;0.60;;;;;36.51;40.37;98630.91;5048901;28;8844;-80
2021/06/18 06:39:49;;;;;;;;;0.00;0.00;;;;;36.48;40.88;98618.03;5053426;28;8913;-78
2021/06/18 06:42:18;;;;;;;;;0.80;0.80;;;;;36.64;42.12;98625.34;5053183;28;8925;-74
2021/06/18 06:44:47;;;;;;;;;1.40;1.40;;;;;36.71;39.97;98623.13;5052692;28;8860;-74
2021/06/18 06:47:15;;;;;;;;;0.00;0.00;;;;;36.81;41.88;98613.78;5053871;28;8831;-74
2021/06/18 06:49:44;;;;;;;;;0.60;0.60;;;;;36.92;41.08;98619.66;5053784;28;8957;-72
2021/06/18 06:52:13;;;;;;;;;0.00;0.00;;;;;36.92;40.17;98610.66;5051638;28;8835;-77
2021/06/18 06:54:46;;;;;;;;;0.00;0.00;;;;;37.04;41.09;98612.56;5049801;28;9016;-73
2021/06/18 06:57:16;;;;;;;;;0.00;0.00;;;;;37.02;39.96;98592.22;5053527;28;8832;-73
2021/06/18 06:59:45;;;;;;;;;0.80;0.80;;;;;37.20;40.95;98601.34;5053129;28;8848;-74
2021/06/18 07:02:13;;;;;;;;;0.20;0.20;;;;;37.22;40.16;98598.19;5052564;28;8840;-72
2021/06/18 07:04:42;;;;;;;;;0.00;0.00;;;;;37.26;39.25;98593.31;5053077;28;8983;-76
2021/06/18 07:07:11;;;;;;;;;0.00;0.00;;;;;37.26;40.63;98579.56;5053668;28;8828;-71
2021/06/18 07:09:40;;;;;;;;;0.00;0.00;;;;;37.16;39.15;98569.69;5053191;28;8867;-72
2021/06/18 07:12:10;;;;;;;;;0.00;0.00;;;;;37.37;40.18;98590.16;5053206;28;8890;-73
2021/06/18 07:14:40;;;;;;;;;0.00;0.00;;;;;37.30;39.93;98585.69;5052482;28;8845;-72
2021/06/18 07:17:09;;;;;;;;;0.00;0.00;;;;;37.31;39.29;98580.97;5023963;28;8832;-73
2021/06/18 07:19:37;;;;;;;;;0.40;0.40;;;;;37.28;38.32;98579.88;5052660;28;8864;-74
2021/06/18 07:22:07;;;;;;;;;1.00;1.00;;;;;37.24;39.38;98579.25;5053222;28;8847;-72
2021/06/18 07:24:36;;;;;;;;;0.60;0.60;;;;;37.21;37.70;98575.41;5039016;28;8847;-73
2021/06/18 07:27:05;;;;;;;;;1.00;1.00;;;;;37.25;40.95;98578.03;5032598;28;8839;-77
2021/06/18 07:29:33;;;;;;;;;0.80;0.80;;;;;37.28;39.84;98577.13;5030032;28;8840;-75
2021/06/18 07:32:02;;;;;;;;;1.00;1.00;;;;;37.30;37.66;98566.44;5043478;28;9648;-75
2021/06/18 07:34:31;;;;;;;;;1.00;1.00;;;;;37.24;40.60;98565.50;5038729;28;8883;-71
2021/06/18 07:37:01;;;;;;;;;0.00;0.00;;;;;37.29;39.32;98569.66;5035579;28;9583;-71
2021/06/18 07:39:47;;;;;;;;;0.00;0.00;;;;;37.32;39.66;98566.00;5029375;28;8871;-71
2021/06/18 07:42:30;;;;;;;;;0.60;0.60;;;;;37.28;40.81;98559.84;5037874;28;9588;-71
2021/06/18 07:44:59;;;;;;;;;0.60;0.60;;;;;37.39;41.17;98563.72;5042651;28;8862;-71
2021/06/18 07:47:28;;;;;;;;;0.00;0.00;;;;;37.40;39.01;98554.25;5050042;28;8870;-71
2021/06/18 07:49:58;;;;;;;;;0.00;0.00;;;;;37.54;39.61;98561.97;5049348;28;8848;-76
2021/06/18 07:52:27;;;;;;;;;0.80;0.80;;;;;37.51;39.68;98549.09;5050401;28;8856;-74
2021/06/18 07:54:58;;;;;;;;;0.00;0.00;;;;;37.61;40.40;98552.66;5049744;28;8845;-76
2021/06/18 07:57:27;;;;;;;;;0.00;0.00;;;;;37.51;38.22;98537.34;5048921;28;8856;-75
2021/06/18 07:59:56;;;;;;;;;0.60;0.60;;;;;37.61;37.49;98547.16;5049156;28;8856;-78
2021/06/18 08:02:25;;;;;;;;;0.20;0.20;;;;;37.54;38.28;98520.69;5050093;28;8838;-74
2021/06/18 08:04:54;;;;;;;;;1.80;1.00;;;;;37.69;39.19;98528.41;5046303;28;8864;-71
2021/06/18 08:07:23;;;;;;;;;0.00;0.00;;;;;37.64;39.95;98520.72;5050152;28;8918;-71
2021/06/18 08:09:53;;;;;;;;;1.00;1.00;;;;;37.78;37.45;98531.91;5049996;28;8870;-71
2021/06/18 08:12:22;;;;;;;;;1.40;1.40;;;;;37.84;39.48;98530.09;5049438;28;8848;-71
2021/06/18 08:14:51;;;;;;;;;0.40;0.40;;;;;37.85;39.24;98522.59;5050341;28;8910;-71
2021/06/18 08:17:39;;;;;;;;;0.00;0.00;;;;;37.92;37.73;98525.06;5049793;28;8853;-70
2021/06/18 08:20:13;;;;;;;;;0.00;0.00;;;;;37.98;37.77;98533.47;5048852;28;8844;-71
2021/06/18 08:22:45;;;;;;;;;0.00;0.00;;;;;38.01;38.31;98527.06;5049145;28;8943;-71
2021/06/18 08:25:14;;;;;;;;;0.40;0.40;;;;;38.03;38.11;98524.63;5048955;28;9646;-71
2021/06/18 08:27:43;;;;;;;;;1.00;1.00;;;;;37.91;38.26;98503.47;5047518;28;8894;-71
2021/06/18 08:30:12;;;;;;;;;0.80;0.80;;;;;38.08;39.90;98524.00;5048507;28;8840;-71
2021/06/18 08:32:53;;;;;;;;;0.00;0.00;;;;;38.09;37.52;98507.03;5048286;28;8844;-71
2021/06/18 08:35:29;;;;;;;;;0.00;0.00;;;;;38.09;37.77;98507.03;5048496;28;8905;-74
2021/06/18 08:38:01;;;;;;;;;1.40;1.40;;;;;38.09;36.33;98506.25;5044192;28;8837;-73
2021/06/18 08:40:34;;;;;;;;;0.00;0.00;;;;;37.98;36.80;98484.66;5047341;28;8844;-74
2021/06/18 08:43:05;;;;;;;;;0.80;0.80;;;;;38.12;39.28;98494.31;5048104;28;8836;-75
2021/06/18 08:45:34;;;;;;;;;0.00;0.00;;;;;37.79;38.48;98453.59;5048672;28;9694;-74
2021/06/18 08:48:03;;;;;;;;;1.00;1.00;;;;;37.94;35.72;98456.53;5064152;28;8840;-75
2021/06/18 08:50:33;;;;;;;;;0.00;0.00;;;;;38.15;38.26;98493.44;5044037;28;8875;-75
2021/06/18 08:53:03;;;;;;;;;0.20;0.20;;;;;37.70;38.74;98437.09;5048992;28;8852;-75
2021/06/18 08:55:53;;;;;;;;;0.00;0.00;;;;;38.10;38.77;98491.25;5049445;28;8844;-72
2021/06/18 08:58:22;;;;;;;;;0.00;0.00;;;;;37.97;37.49;98472.13;4998958;28;8983;-71
2021/06/18 09:00:51;;;;;;;;;0.00;0.00;;;;;38.10;37.68;98491.25;4996378;28;8872;-72
2021/06/18 09:03:45;;;;;;;;;1.00;1.00;;;;;38.10;34.77;98489.28;4996307;28;8873;-74
2021/06/18 09:06:29;;;;;;;;;0.00;0.00;;;;;38.13;35.46;98479.31;5001761;28;8835;-71
2021/06/18 09:09:22;;;;;;;;;0.00;0.00;;;;;38.14;36.17;98489.16;4999105;28;8858;-71
2021/06/18 09:11:57;;;;;;;;;0.40;0.40;;;;;38.13;36.40;98487.59;4998853;28;9563;-75
2021/06/18 09:14:42;;;;;;;;;0.00;0.00;;;;;37.85;37.73;98435.25;4982971;28;8849;-72
2021/06/18 09:17:24;;;;;;;;;1.00;1.00;;;;;38.10;37.38;98471.97;5003058;28;8810;-75
2021/06/18 09:19:57;;;;;;;;;0.00;0.00;;;;;38.07;38.35;98468.16;4997387;28;8996;-73
2021/06/18 09:22:35;;;;;;;;;0.00;0.00;;;;;37.93;36.10;98455.00;4997603;28;8853;-75
2021/06/18 09:25:09;;;;;;;;;0.00;0.00;;;;;38.03;35.69;98459.28;4998666;28;8846;-73
2021/06/18 09:27:49;;;;;;;;;0.00;0.00;;;;;38.01;36.76;98458.22;5009472;28;8859;-77
2021/06/18 09:30:36;;;;;;;;;0.00;0.00;;;;;38.05;37.64;98472.59;5005727;28;8882;-75
2021/06/18 09:33:27;;;;;;;;;0.00;0.00;;;;;37.87;35.67;98440.31;5000173;28;8830;-75
2021/06/18 09:36:04;;;;;;;;;1.00;1.00;;;;;38.04;35.33;98468.31;5036043;28;8840;-75
2021/06/18 09:38:44;;;;;;;;;0.60;0.60;;;;;38.03;34.82;98469.53;5048505;28;8832;-73
2021/06/18 09:41:41;;;;;;;;;0.60;0.60;;;;;37.58;39.72;98395.94;5048405;28;8871;-73
2021/06/18 09:44:17;;;;;;;;;1.00;1.00;;;;;37.97;35.92;98469.38;4988311;28;8851;-71
2021/06/18 09:46:52;;;;;;;;;0.00;0.00;;;;;37.92;36.84;98464.47;4891404;28;9703;-72
2021/06/18 09:49:51;;;;;;;;;0.40;0.40;;;;;37.80;36.57;98457.13;4949443;28;9123;-73
2021/06/18 09:52:26;;;;;;;;;1.00;1.00;;;;;37.96;38.16;98480.84;5016923;28;8850;-73
2021/06/18 09:54:58;;;;;;;;;0.00;0.00;;;;;37.78;37.16;98445.81;5029396;28;8870;-78
2021/06/18 09:57:41;;;;;;;;;0.00;0.00;;;;;37.94;37.33;98472.28;5031636;28;8863;-73
2021/06/18 10:00:18;;;;;;;;;1.00;1.00;;;;;37.97;36.61;98476.88;5023917;28;8871;-76
2021/06/18 10:02:53;;;;;;;;;1.00;1.00;;;;;37.78;36.88;98440.28;5025548;28;8881;-76
2021/06/18 10:05:34;;;;;;;;;0.00;0.00;;;;;38.06;35.98;98485.91;5029254;28;8991;-75
2021/06/18 10:08:06;;;;;;;;;0.80;0.80;;;;;38.04;37.53;98482.84;5028849;28;8846;-73
2021/06/18 10:10:38;;;;;;;;;0.40;0.40;;;;;38.11;38.71;98492.78;5028119;28;8839;-72
2021/06/18 10:13:06;;;;;;;;;0.00;0.00;;;;;37.92;37.65;98458.97;5028780;28;8843;-74
2021/06/18 10:15:38;;;;;;;;;0.80;0.80;;;;;38.03;37.39;98478.56;5026393;28;8868;-73
2021/06/18 10:18:11;;;;;;;;;0.00;0.00;;;;;37.87;37.76;98462.31;5028428;28;9596;-72
2021/06/18 10:20:40;;;;;;;;;0.80;0.80;;;;;37.99;36.43;98479.94;5030287;28;8956;-72
2021/06/18 10:23:16;;;;;;;;;0.00;0.00;;;;;37.96;37.47;98484.38;5031672;28;8932;-71
2021/06/18 10:25:56;;;;;;;;;0.60;0.60;;;;;37.94;38.50;98486.81;5032376;28;8843;-72
2021/06/18 10:28:35;;;;;;;;;0.00;0.00;;;;;37.68;37.32;98463.56;5030324;28;8904;-72
2021/06/18 10:31:05;;;;;;;;;0.40;0.40;;;;;37.86;37.27;98493.84;5031919;28;8835;-72
2021/06/18 10:33:40;;;;;;;;;1.00;1.00;;;;;37.79;37.96;98485.88;5030678;28;8869;-77
2021/06/18 10:36:25;;;;;;;;;1.00;1.00;;;;;37.81;38.48;98491.69;5034047;28;8843;-73
2021/06/18 10:39:08;;;;;;;;;0.00;0.00;;;;;37.78;36.74;98489.84;5027634;28;9673;-74
2021/06/18 10:41:52;;;;;;;;;0.00;0.00;;;;;37.73;36.77;98493.97;5031634;28;8843;-73
2021/06/18 10:44:40;;;;;;;;;0.60;0.60;;;;;37.63;37.21;98483.41;5047887;28;8835;-73
2021/06/18 10:47:25;;;;;;;;;2.20;2.20;;;;;37.64;38.42;98490.44;5032719;28;8862;-74
2021/06/18 10:49:54;;;;;;;;;1.80;1.80;;;;;37.46;37.14;98471.88;5033401;28;8857;-71
2021/06/18 10:52:25;;;;;;;;;1.00;1.00;;;;;37.55;37.78;98496.69;5022679;28;8866;-71
2021/06/18 10:54:55;;;;;;;;;3.00;3.00;;;;;37.50;37.54;98487.03;5030844;28;8919;-71
2021/06/18 10:57:25;;;;;;;;;4.20;3.40;;;;;37.37;38.62;98472.63;5029671;28;8918;-71
2021/06/18 11:00:16;;;;;;;;;3.00;3.00;;;;;37.38;37.21;98487.91;5030592;28;8873;-72
2021/06/18 11:02:45;;;;;;;;;4.60;4.60;;;;;37.25;37.24;98476.25;5030068;28;8855;-71
2021/06/18 11:05:28;;;;;;;;;2.40;2.40;;;;;37.23;36.86;98484.19;5030798;28;8863;-71
2021/06/18 11:08:16;;;;;;;;;2.60;2.60;;;;;37.14;38.47;98490.38;5030357;28;9710;-71
2021/06/18 11:11:01;;;;;;;;;1.00;1.00;;;;;36.96;38.67;98493.06;5029942;28;8851;-70
2021/06/18 11:13:32;;;;;;;;;0.20;0.20;;;;;36.86;37.36;98496.97;5030234;28;8916;-71
2021/06/18 11:16:00;;;;;;;;;1.00;1.00;;;;;36.62;39.09;98471.91;5030629;28;8843;-71
2021/06/18 11:18:32;;;;;;;;;1.40;1.40;;;;;36.68;39.80;98502.31;5030623;28;8835;-70
2021/06/18 11:21:08;;;;;;;;;2.00;2.00;;;;;36.55;38.79;98494.16;5028444;28;9061;-71
2021/06/18 11:23:56;;;;;;;;;1.40;1.40;;;;;36.40;38.58;98495.91;5030107;28;8843;-72
2021/06/18 11:26:25;;;;;;;;;1.80;1.80;;;;;36.30;39.26;98494.28;5027800;28;8924;-71
2021/06/18 11:28:54;;;;;;;;;2.00;2.00;;;;;36.23;40.04;98498.78;5030216;28;8912;-71
2021/06/18 11:31:39;;;;;;;;;1.60;1.60;;;;;36.17;39.47;98503.31;5028443;28;8841;-71
2021/06/18 11:34:24;;;;;;;;;2.40;2.40;;;;;36.07;39.63;98509.94;5027998;28;8940;-71
2021/06/18 11:36:57;;;;;;;;;1.20;1.20;;;;;35.75;40.46;98474.53;5029095;28;8839;-70
2021/06/18 11:39:28;;;;;;;;;2.60;2.60;;;;;35.90;39.47;98514.81;5030638;28;8873;-71
2021/06/18 11:42:14;;;;;;;;;1.00;1.00;;;;;35.64;39.21;98478.38;5023873;28;8814;-71
2021/06/18 11:44:43;;;;;;;;;1.20;1.20;;;;;35.75;39.58;98507.47;5019345;28;8827;-72
2021/06/18 11:47:12;;;;;;;;;1.00;1.00;;;;;35.58;39.93;98495.84;5019710;28;8857;-71
2021/06/18 11:49:45;;;;;;;;;1.40;1.40;;;;;35.56;40.19;98501.78;5027472;28;8902;-72
2021/06/18 11:52:15;;;;;;;;;1.80;1.80;;;;;35.60;40.28;98518.13;5021241;28;8884;-71
2021/06/18 11:54:47;;;;;;;;;6.60;6.60;;;;;35.61;39.95;98516.91;5024278;28;8842;-71
2021/06/18 11:57:20;;;;;;;;;2.00;2.00;;;;;35.59;40.83;98506.38;5017493;28;8878;-70
2021/06/18 12:00:00;;;;;;;;;1.00;1.00;;;;;35.56;40.61;98512.75;5028042;28;8879;-71
2021/06/18 12:02:35;;;;;;;;;0.80;0.80;;;;;35.54;40.61;98517.16;5028909;28;8996;-71
2021/06/18 12:05:17;;;;;;;;;2.00;2.00;;;;;35.50;40.43;98517.25;5030498;28;8854;-71
2021/06/18 12:07:50;;;;;;;;;1.00;1.00;;;;;35.36;40.94;98512.22;5011010;28;9628;-71